Time;durP1;ratioP1;P1;durP2;ratioP2;P2;SDS_P1;SDS_P2;PMS_P1;PMS_P2;Temp;Humidity;BMP_temperature;BMP_pressure;BME280_temperature;BME280_humidity;BME280_pressure;Samples;Min_cycle;Max_cycle;Signal;HPM_P1;HPM_P2
2023/09/11 00:00:37;;;;;;;;;;;;;;;25.95;46.87;100759.16;5088294;28;19948;-63
2023/09/11 00:03:02;;;;;;;;;;;;;;;25.99;46.90;100754.69;5076550;28;20104;-63
2023/09/11 00:05:28;;;;;;;;;;;;;;;26.02;46.98;100753.28;5094234;28;19920;-64
2023/09/11 00:07:53;;;;;;;;;;;;;;;25.98;46.88;100749.50;5096946;28;19916;-63
2023/09/11 00:10:19;;;;;;;;;;;;;;;26.00;46.92;100745.34;5096673;28;20002;-64
2023/09/11 00:12:44;;;;;;;;;;;;;;;26.05;46.73;100748.03;5096857;28;20384;-63
2023/09/11 00:15:09;;;;;;;;;;;;;;;26.06;46.66;100741.44;5096812;28;19912;-63
2023/09/11 00:17:34;;;;;;;;;;;;;;;26.06;46.63;100733.16;5096536;28;20407;-63
2023/09/11 00:20:00;;;;;;;;;;;;;;;26.05;46.69;100742.53;5096757;28;19912;-63
2023/09/11 00:22:25;;;;;;;;;;;;;;;26.05;46.62;100736.22;5096434;28;20357;-64
2023/09/11 00:24:50;;;;;;;;;;;;;;;26.04;46.52;100743.66;5096870;28;19923;-63
2023/09/11 00:27:15;;;;;;;;;;;;;;;26.02;46.54;100732.13;5096666;28;20372;-63
2023/09/11 00:29:41;;;;;;;;;;;;;;;25.98;46.73;100733.78;5096445;28;20244;-63
2023/09/11 00:32:06;;;;;;;;;;;;;;;26.01;46.72;100732.41;5096257;28;20002;-63
2023/09/11 00:34:31;;;;;;;;;;;;;;;26.03;46.35;100738.44;5095070;28;19954;-63
2023/09/11 00:36:57;;;;;;;;;;;;;;;26.00;46.62;100728.00;5096264;28;20014;-64
2023/09/11 00:39:22;;;;;;;;;;;;;;;26.00;46.73;100726.09;5096478;28;19965;-64
2023/09/11 00:41:48;;;;;;;;;;;;;;;25.96;46.85;100716.75;5096226;28;20351;-64
2023/09/11 00:44:13;;;;;;;;;;;;;;;25.97;46.86;100718.41;5096391;28;19968;-64
2023/09/11 00:46:39;;;;;;;;;;;;;;;25.99;46.82;100718.94;5095936;28;19935;-64
2023/09/11 00:49:06;;;;;;;;;;;;;;;26.02;46.65;100712.84;5096304;28;19912;-64
2023/09/11 00:51:32;;;;;;;;;;;;;;;25.99;46.67;100718.94;5096146;28;19912;-64
2023/09/11 00:53:58;;;;;;;;;;;;;;;25.99;46.65;100715.38;5095623;28;20264;-64
2023/09/11 00:56:24;;;;;;;;;;;;;;;26.00;46.62;100719.75;5091894;28;19917;-64
2023/09/11 00:58:50;;;;;;;;;;;;;;;26.01;46.75;100715.88;5075775;28;20276;-64
2023/09/11 01:01:15;;;;;;;;;;;;;;;26.02;46.74;100707.34;5089735;28;20323;-64
2023/09/11 01:03:40;;;;;;;;;;;;;;;26.02;46.55;100717.50;5096600;28;19927;-64
2023/09/11 01:06:07;;;;;;;;;;;;;;;26.02;46.88;100706.50;5096505;28;20314;-64
2023/09/11 01:08:32;;;;;;;;;;;;;;;26.03;46.69;100703.47;5095805;28;19912;-65
2023/09/11 01:10:57;;;;;;;;;;;;;;;26.03;46.54;100703.47;5095610;28;20328;-65
2023/09/11 01:13:23;;;;;;;;;;;;;;;26.02;46.80;100703.75;5095594;28;19919;-64
2023/09/11 01:16:09;;;;;;;;;;;;;;;26.05;46.67;100697.69;5095510;28;19955;-64
2023/09/11 01:18:40;;;;;;;;;;;;;;;26.06;46.59;100688.31;5063648;28;19977;-64
2023/09/11 01:21:24;;;;;;;;;;;;;;;26.04;46.83;100685.84;5095280;28;19995;-64
2023/09/11 01:23:55;;;;;;;;;;;;;;;26.03;46.58;100686.94;5095531;28;20349;-64
2023/09/11 01:26:35;;;;;;;;;;;;;;;26.05;46.29;100686.66;5095265;28;19923;-64
2023/09/11 01:29:05;;;;;;;;;;;;;;;26.10;46.43;100674.78;5095152;28;19912;-64
2023/09/11 01:31:31;;;;;;;;;;;;;;;26.11;46.56;100673.66;5094215;28;19912;-64
2023/09/11 01:34:00;;;;;;;;;;;;;;;26.10;46.65;100664.59;5095197;28;20376;-63
2023/09/11 01:36:25;;;;;;;;;;;;;;;26.11;46.32;100651.63;5094953;28;20395;-63
2023/09/11 01:38:51;;;;;;;;;;;;;;;26.12;46.51;100647.78;5095262;28;19916;-64
2023/09/11 01:41:20;;;;;;;;;;;;;;;26.14;46.46;100654.63;5095880;28;19994;-63
2023/09/11 01:43:47;;;;;;;;;;;;;;;26.11;46.61;100646.94;5094829;28;20357;-63
2023/09/11 01:46:14;;;;;;;;;;;;;;;26.11;46.65;100657.16;5093547;28;19916;-63
2023/09/11 01:48:40;;;;;;;;;;;;;;;26.05;46.73;100662.69;5095011;28;20295;-63
2023/09/11 01:51:06;;;;;;;;;;;;;;;26.08;46.80;100650.31;5095058;28;19916;-63
2023/09/11 01:53:32;;;;;;;;;;;;;;;25.82;46.64;100608.47;5094444;28;19955;-63
2023/09/11 01:55:58;;;;;;;;;;;;;;;26.11;46.67;100648.88;5103842;28;20007;-63
2023/09/11 01:58:23;;;;;;;;;;;;;;;26.13;46.53;100652.97;5094572;28;19912;-63
2023/09/11 02:00:49;;;;;;;;;;;;;;;26.14;46.87;100649.13;5094857;28;19916;-63
2023/09/11 02:03:16;;;;;;;;;;;;;;;26.14;46.95;100648.31;5094383;28;19912;-63
2023/09/11 02:05:41;;;;;;;;;;;;;;;26.13;46.60;100644.72;5095082;28;19971;-63
2023/09/11 02:08:06;;;;;;;;;;;;;;;26.12;46.66;100637.59;5094520;28;20386;-63
2023/09/11 02:10:32;;;;;;;;;;;;;;;26.14;46.74;100645.56;5094278;28;19919;-63
2023/09/11 02:12:57;;;;;;;;;;;;;;;26.16;46.75;100637.81;5094128;28;19938;-63
2023/09/11 02:15:22;;;;;;;;;;;;;;;26.13;46.77;100635.66;5094233;28;20364;-63
2023/09/11 02:17:47;;;;;;;;;;;;;;;26.12;46.72;100625.75;5094086;28;19918;-63
2023/09/11 02:20:13;;;;;;;;;;;;;;;26.10;46.76;100622.50;5094019;28;19923;-64
2023/09/11 02:22:38;;;;;;;;;;;;;;;26.06;46.89;100623.06;5094364;28;19912;-63
2023/09/11 02:25:03;;;;;;;;;;;;;;;26.05;46.70;100624.16;5094004;28;19927;-64
2023/09/11 02:27:29;;;;;;;;;;;;;;;26.06;46.66;100620.31;5093899;28;19947;-64
2023/09/11 02:29:54;;;;;;;;;;;;;;;26.03;46.81;100620.09;5094358;28;19912;-64
2023/09/11 02:32:19;;;;;;;;;;;;;;;26.05;46.81;100626.91;5093905;28;20045;-64
2023/09/11 02:34:45;;;;;;;;;;;;;;;26.11;46.65;100627.69;5093998;28;19919;-64
2023/09/11 02:37:10;;;;;;;;;;;;;;;26.08;46.73;100626.34;5093958;28;19935;-63
2023/09/11 02:39:36;;;;;;;;;;;;;;;26.02;46.83;100621.19;5093964;28;19916;-63
2023/09/11 02:42:01;;;;;;;;;;;;;;;25.98;46.93;100620.94;5093989;28;20007;-63
2023/09/11 02:44:26;;;;;;;;;;;;;;;25.97;46.73;100622.06;5093819;28;20349;-64
2023/09/11 02:46:51;;;;;;;;;;;;;;;25.98;46.87;100623.69;5094126;28;20348;-63
2023/09/11 02:49:18;;;;;;;;;;;;;;;25.99;47.07;100622.59;5093932;28;19912;-63
2023/09/11 02:51:43;;;;;;;;;;;;;;;26.02;46.92;100618.44;5093465;28;19916;-64
2023/09/11 02:54:08;;;;;;;;;;;;;;;26.07;46.68;100604.63;5092926;28;20372;-63
2023/09/11 02:56:37;;;;;;;;;;;;;;;26.11;46.82;100618.59;5109893;28;19958;-63
2023/09/11 02:59:03;;;;;;;;;;;;;;;26.08;46.74;100609.81;5114066;28;20296;-63
2023/09/11 03:01:28;;;;;;;;;;;;;;;26.10;46.51;100617.00;5110994;28;19920;-63
2023/09/11 03:03:53;;;;;;;;;;;;;;;26.05;46.52;100631.63;5093239;28;19924;-63
2023/09/11 03:06:18;;;;;;;;;;;;;;;26.02;46.71;100633.03;5093533;28;19916;-63
2023/09/11 03:08:44;;;;;;;;;;;;;;;26.03;46.63;100637.41;5093488;28;19912;-63
2023/09/11 03:11:09;;;;;;;;;;;;;;;26.02;46.70;100641.28;5093548;28;19911;-63
2023/09/11 03:13:35;;;;;;;;;;;;;;;26.01;46.73;100639.63;5092587;28;19947;-63
2023/09/11 03:16:11;;;;;;;;;;;;;;;25.80;47.65;100646.47;5093855;28;19912;-63
2023/09/11 03:18:36;;;;;;;;;;;;;;;25.67;48.12;100643.28;5093414;28;20006;-63
2023/09/11 03:21:03;;;;;;;;;;;;;;;25.73;47.69;100627.53;5093577;28;19943;-63
2023/09/11 03:23:28;;;;;;;;;;;;;;;25.76;47.91;100621.47;5094269;28;19912;-64
2023/09/11 03:25:53;;;;;;;;;;;;;;;25.84;47.73;100618.06;5097508;28;19927;-63
2023/09/11 03:28:18;;;;;;;;;;;;;;;25.91;47.26;100612.22;5097339;28;19920;-64
2023/09/11 03:30:44;;;;;;;;;;;;;;;25.88;47.37;100612.78;5097568;28;20002;-63
2023/09/11 03:33:09;;;;;;;;;;;;;;;25.87;47.49;100605.63;5097677;28;19912;-63
2023/09/11 03:35:35;;;;;;;;;;;;;;;25.78;48.00;100608.22;5097505;28;19975;-64
2023/09/11 03:38:01;;;;;;;;;;;;;;;25.81;47.87;100596.63;5097518;28;19947;-63
2023/09/11 03:40:28;;;;;;;;;;;;;;;25.80;47.86;100592.25;5097232;28;19931;-63
2023/09/11 03:42:53;;;;;;;;;;;;;;;25.81;47.75;100584.81;5097412;28;20022;-65
2023/09/11 03:45:18;;;;;;;;;;;;;;;25.83;47.94;100585.34;5097159;28;20098;-64
2023/09/11 03:47:44;;;;;;;;;;;;;;;25.80;47.85;100577.69;5097167;28;19935;-65
2023/09/11 03:50:10;;;;;;;;;;;;;;;25.80;47.96;100567.50;5097261;28;19961;-63
2023/09/11 03:52:35;;;;;;;;;;;;;;;25.80;48.17;100558.44;5097072;28;19915;-63
2023/09/11 03:55:00;;;;;;;;;;;;;;;25.79;48.27;100557.59;5099196;28;20407;-64
2023/09/11 03:57:26;;;;;;;;;;;;;;;25.83;48.16;100555.88;5117123;28;19912;-63
2023/09/11 03:59:51;;;;;;;;;;;;;;;25.82;48.09;100548.75;5113536;28;19916;-63
2023/09/11 04:02:16;;;;;;;;;;;;;;;25.85;47.93;100547.34;5087432;28;20030;-63
2023/09/11 04:04:41;;;;;;;;;;;;;;;25.86;47.76;100557.25;5076292;28;20381;-63
2023/09/11 04:07:07;;;;;;;;;;;;;;;25.83;47.94;100560.56;5076265;28;19912;-63
2023/09/11 04:09:32;;;;;;;;;;;;;;;25.84;48.22;100556.72;5076498;28;19912;-63
2023/09/11 04:12:00;;;;;;;;;;;;;;;25.83;48.08;100561.38;5076220;28;20327;-63
2023/09/11 04:14:25;;;;;;;;;;;;;;;25.79;48.01;100565.84;5076301;28;19913;-63
2023/09/11 04:16:51;;;;;;;;;;;;;;;25.85;48.10;100563.84;5076522;28;19913;-63
2023/09/11 04:19:16;;;;;;;;;;;;;;;25.69;48.56;100560.47;5076179;28;20376;-63
2023/09/11 04:21:41;;;;;;;;;;;;;;;25.69;48.63;100558.53;5076016;28;20327;-64
2023/09/11 04:24:12;;;;;;;;;;;;;;;25.63;48.96;100556.97;5076106;28;19912;-63
2023/09/11 04:26:41;;;;;;;;;;;;;;;25.36;49.73;100565.75;5082729;28;20377;-63
2023/09/11 04:29:07;;;;;;;;;;;;;;;25.40;49.94;100571.50;5096257;28;20303;-63
2023/09/11 04:31:32;;;;;;;;;;;;;;;25.31;50.25;100565.81;5096429;28;19912;-63
2023/09/11 04:33:59;;;;;;;;;;;;;;;25.23;50.16;100567.25;5096559;28;20310;-63
2023/09/11 04:36:24;;;;;;;;;;;;;;;25.29;49.88;100557.84;5095675;28;19912;-63
2023/09/11 04:38:50;;;;;;;;;;;;;;;25.32;49.83;100547.41;5096312;28;19912;-63
2023/09/11 04:41:16;;;;;;;;;;;;;;;25.29;49.73;100541.34;5096241;28;19939;-63
2023/09/11 04:43:41;;;;;;;;;;;;;;;25.33;49.75;100547.09;5096326;28;19912;-64
2023/09/11 04:46:06;;;;;;;;;;;;;;;25.40;49.29;100531.06;5095856;28;20337;-64
2023/09/11 04:48:32;;;;;;;;;;;;;;;25.52;49.22;100530.69;5095864;28;19919;-64
2023/09/11 04:50:57;;;;;;;;;;;;;;;25.49;48.79;100529.31;5096015;28;20327;-64
2023/09/11 04:53:22;;;;;;;;;;;;;;;25.45;49.12;100525.53;5095971;28;20005;-64
2023/09/11 04:55:47;;;;;;;;;;;;;;;25.43;48.78;100535.19;5103901;28;19912;-64
2023/09/11 04:58:13;;;;;;;;;;;;;;;25.36;49.05;100534.72;5096158;28;20407;-64
2023/09/11 05:00:39;;;;;;;;;;;;;;;25.38;49.22;100527.00;5096053;28;19916;-64
2023/09/11 05:03:05;;;;;;;;;;;;;;;25.33;49.35;100532.53;5079379;28;20006;-64
2023/09/11 05:05:30;;;;;;;;;;;;;;;25.38;49.35;100533.28;5075414;28;20015;-64
2023/09/11 05:07:55;;;;;;;;;;;;;;;25.32;49.55;100528.16;5076216;28;19919;-63
2023/09/11 05:10:21;;;;;;;;;;;;;;;25.35;49.36;100538.56;5076489;28;19935;-63
2023/09/11 05:12:46;;;;;;;;;;;;;;;25.35;49.35;100538.56;5076202;28;20396;-64
2023/09/11 05:15:12;;;;;;;;;;;;;;;25.29;49.62;100535.84;5075478;28;20273;-64
2023/09/11 05:17:38;;;;;;;;;;;;;;;25.19;49.54;100544.19;5075126;28;19919;-64
2023/09/11 05:20:05;;;;;;;;;;;;;;;25.16;49.80;100542.00;5075505;28;19916;-64
2023/09/11 05:22:30;;;;;;;;;;;;;;;25.18;49.79;100539.78;5075065;28;19912;-64
2023/09/11 05:24:55;;;;;;;;;;;;;;;25.14;49.31;100535.97;5076319;28;19916;-64
2023/09/11 05:27:21;;;;;;;;;;;;;;;24.98;49.72;100540.81;5095221;28;19912;-64
2023/09/11 05:29:47;;;;;;;;;;;;;;;25.16;49.23;100519.22;5094162;28;19919;-63
2023/09/11 05:32:12;;;;;;;;;;;;;;;25.20;49.11;100518.31;5095399;28;20292;-63
2023/09/11 05:34:38;;;;;;;;;;;;;;;25.16;49.42;100510.97;5095010;28;20364;-63
2023/09/11 05:37:03;;;;;;;;;;;;;;;25.23;48.95;100520.53;5095226;28;19999;-64
2023/09/11 05:39:28;;;;;;;;;;;;;;;25.28;49.04;100512.25;5095249;28;19965;-64
2023/09/11 05:41:53;;;;;;;;;;;;;;;25.20;48.80;100492.78;5093753;28;19916;-64
2023/09/11 05:44:19;;;;;;;;;;;;;;;25.21;48.87;100510.91;5095607;28;19965;-64
2023/09/11 05:46:44;;;;;;;;;;;;;;;25.23;48.97;100506.78;5094497;28;19920;-63
2023/09/11 05:49:09;;;;;;;;;;;;;;;25.11;49.09;100515.41;5096976;28;20008;-63
2023/09/11 05:51:34;;;;;;;;;;;;;;;25.12;49.15;100514.28;5096707;28;19916;-64
2023/09/11 05:54:00;;;;;;;;;;;;;;;25.14;49.11;100521.44;5097821;28;19962;-64
2023/09/11 05:56:26;;;;;;;;;;;;;;;25.12;49.27;100513.47;5100864;28;19912;-63
2023/09/11 05:58:51;;;;;;;;;;;;;;;25.18;48.80;100508.75;5098412;28;20451;-64
2023/09/11 06:01:17;;;;;;;;;;;;;;;25.18;48.98;100511.50;5094389;28;19912;-64
2023/09/11 06:03:42;;;;;;;;;;;;;;;25.07;49.12;100505.28;5075609;28;19921;-64
2023/09/11 06:06:08;;;;;;;;;;;;;;;25.15;49.01;100504.66;5076150;28;19962;-64
2023/09/11 06:08:33;;;;;;;;;;;;;;;25.15;48.99;100507.41;5074717;28;19986;-64
2023/09/11 06:10:59;;;;;;;;;;;;;;;25.22;48.73;100496.03;5075130;28;20365;-64
2023/09/11 06:13:25;;;;;;;;;;;;;;;25.28;48.29;100504.00;5074314;28;19912;-64
2023/09/11 06:15:50;;;;;;;;;;;;;;;25.21;48.63;100497.16;5074547;28;20008;-63
2023/09/11 06:18:16;;;;;;;;;;;;;;;25.11;49.12;100500.81;5074256;28;20010;-63
2023/09/11 06:20:41;;;;;;;;;;;;;;;25.10;48.86;100505.50;5077557;28;19922;-63
2023/09/11 06:23:06;;;;;;;;;;;;;;;25.15;48.80;100496.41;5106636;28;20284;-63
2023/09/11 06:25:32;;;;;;;;;;;;;;;25.16;49.12;100488.97;5105868;28;19916;-63
2023/09/11 06:27:57;;;;;;;;;;;;;;;25.11;49.07;100485.19;5096160;28;19912;-64
2023/09/11 06:30:22;;;;;;;;;;;;;;;25.15;48.78;100484.56;5095014;28;19958;-64
2023/09/11 06:32:48;;;;;;;;;;;;;;;25.09;48.79;100487.41;5094784;28;19938;-63
2023/09/11 06:35:13;;;;;;;;;;;;;;;25.14;48.65;100488.44;5094652;28;19915;-63
2023/09/11 06:37:38;;;;;;;;;;;;;;;25.02;49.57;100489.66;5093810;28;20308;-64
2023/09/11 06:40:07;;;;;;;;;;;;;;;25.05;49.45;100493.75;5093842;28;19916;-63
2023/09/11 06:42:33;;;;;;;;;;;;;;;25.08;50.14;100494.00;5093869;28;20019;-62
2023/09/11 06:44:58;;;;;;;;;;;;;;;25.02;50.84;100497.09;5085419;28;19916;-61
2023/09/11 06:47:24;;;;;;;;;;;;;;;24.96;50.95;100498.22;5082819;28;20326;-61
2023/09/11 06:49:49;;;;;;;;;;;;;;;24.77;51.40;100496.19;5094133;28;19912;-62
2023/09/11 06:52:16;;;;;;;;;;;;;;;24.80;51.19;100492.06;5093256;28;19923;-63
2023/09/11 06:54:41;;;;;;;;;;;;;;;24.91;50.77;100491.69;5093185;28;19912;-62
2023/09/11 06:57:06;;;;;;;;;;;;;;;24.81;51.09;100497.25;5113601;28;20385;-63
2023/09/11 06:59:32;;;;;;;;;;;;;;;24.76;50.92;100502.81;5112156;28;19938;-62
2023/09/11 07:01:57;;;;;;;;;;;;;;;24.83;51.18;100517.03;5107112;28;19912;-63
2023/09/11 07:04:22;;;;;;;;;;;;;;;24.74;51.38;100513.28;5093322;28;19920;-61
2023/09/11 07:06:48;;;;;;;;;;;;;;;24.80;51.09;100516.81;5093436;28;19916;-61
2023/09/11 07:09:13;;;;;;;;;;;;;;;24.82;51.31;100509.09;5092484;28;19916;-61
2023/09/11 07:11:38;;;;;;;;;;;;;;;24.83;51.21;100508.81;5093185;28;19912;-61
2023/09/11 07:14:05;;;;;;;;;;;;;;;24.81;51.36;100501.94;5093208;28;19961;-61
2023/09/11 07:16:31;;;;;;;;;;;;;;;24.80;51.17;100492.88;5092980;28;19991;-61
2023/09/11 07:18:56;;;;;;;;;;;;;;;24.90;51.21;100478.22;5093540;28;19939;-60
2023/09/11 07:21:21;;;;;;;;;;;;;;;24.91;51.20;100464.22;5092970;28;20289;-60
2023/09/11 07:23:47;;;;;;;;;;;;;;;24.97;51.17;100461.41;5093155;28;19912;-60
2023/09/11 07:26:12;;;;;;;;;;;;;;;25.05;50.83;100452.53;5093644;28;19928;-60
2023/09/11 07:28:53;;;;;;;;;;;;;;;25.18;50.25;100427.09;5093561;28;20399;-60
2023/09/11 07:31:18;;;;;;;;;;;;;;;25.29;50.11;100427.84;5093181;28;19912;-60
2023/09/11 07:33:44;;;;;;;;;;;;;;;25.33;49.84;100414.31;5093168;28;20340;-60
2023/09/11 07:36:09;;;;;;;;;;;;;;;25.37;49.82;100399.72;5093146;28;19995;-60
2023/09/11 07:38:34;;;;;;;;;;;;;;;25.39;49.73;100400.22;5093089;28;19919;-60
2023/09/11 07:40:59;;;;;;;;;;;;;;;25.39;49.92;100413.13;5093280;28;19912;-59
2023/09/11 07:43:25;;;;;;;;;;;;;;;25.40;49.88;100412.03;5092956;28;19912;-60
2023/09/11 07:45:50;;;;;;;;;;;;;;;25.40;49.78;100420.28;5093202;28;19916;-60
2023/09/11 07:48:15;;;;;;;;;;;;;;;25.30;50.30;100419.28;5093187;28;20268;-60
2023/09/11 07:50:40;;;;;;;;;;;;;;;25.28;49.89;100412.47;5092867;28;19912;-60
2023/09/11 07:53:06;;;;;;;;;;;;;;;25.36;49.80;100408.25;5092870;28;19912;-60
2023/09/11 07:55:35;;;;;;;;;;;;;;;25.41;49.77;100402.69;5092320;28;19913;-60
2023/09/11 07:58:00;;;;;;;;;;;;;;;25.44;49.86;100404.81;5092979;28;19990;-60
2023/09/11 08:00:30;;;;;;;;;;;;;;;25.41;50.07;100403.50;5093051;28;19960;-60
2023/09/11 08:02:56;;;;;;;;;;;;;;;25.45;49.71;100401.78;5093380;28;20053;-60
2023/09/11 08:05:21;;;;;;;;;;;;;;;25.48;49.69;100409.47;5092761;28;19995;-60
2023/09/11 08:07:46;;;;;;;;;;;;;;;25.45;50.03;100411.97;5093280;28;19916;-60
2023/09/11 08:10:11;;;;;;;;;;;;;;;25.45;50.08;100400.97;5093366;28;20442;-60
2023/09/11 08:12:36;;;;;;;;;;;;;;;25.49;49.75;100408.31;5096885;28;20350;-61
2023/09/11 08:15:02;;;;;;;;;;;;;;;25.17;51.18;100400.75;5096819;28;19912;-61
2023/09/11 08:17:29;;;;;;;;;;;;;;;25.05;51.23;100395.63;5096613;28;20010;-60
2023/09/11 08:19:54;;;;;;;;;;;;;;;25.04;51.74;100394.00;5096708;28;20256;-59
2023/09/11 08:22:19;;;;;;;;;;;;;;;25.02;51.99;100384.44;5096237;28;19918;-60
2023/09/11 08:24:44;;;;;;;;;;;;;;;25.04;51.71;100388.53;5096556;28;19924;-60
2023/09/11 08:27:10;;;;;;;;;;;;;;;25.01;51.64;100382.78;5096043;28;20407;-61
2023/09/11 08:29:35;;;;;;;;;;;;;;;25.14;51.28;100384.81;5096384;28;19957;-61
2023/09/11 08:32:00;;;;;;;;;;;;;;;25.17;50.98;100389.75;5075746;28;19923;-60
2023/09/11 08:34:26;;;;;;;;;;;;;;;25.09;51.37;100404.13;5076062;28;20303;-61
2023/09/11 08:36:51;;;;;;;;;;;;;;;25.03;51.53;100394.31;5076078;28;19919;-60
2023/09/11 08:39:16;;;;;;;;;;;;;;;24.94;51.85;100396.84;5075981;28;19955;-61
2023/09/11 08:41:42;;;;;;;;;;;;;;;24.89;52.10;100402.44;5084283;28;19912;-61
2023/09/11 08:44:08;;;;;;;;;;;;;;;24.93;51.80;100403.47;5096611;28;19916;-60
2023/09/11 08:46:33;;;;;;;;;;;;;;;24.87;52.01;100405.47;5096136;28;19926;-61
2023/09/11 08:49:01;;;;;;;;;;;;;;;24.87;51.96;100397.22;5096568;28;19961;-61
2023/09/11 08:51:34;;;;;;;;;;;;;;;24.84;51.92;100389.56;5095835;28;19912;-62
2023/09/11 08:54:01;;;;;;;;;;;;;;;24.81;51.86;100397.56;5095595;28;19912;-61
2023/09/11 08:56:26;;;;;;;;;;;;;;;24.83;51.78;100407.16;5095747;28;19951;-61
2023/09/11 08:58:52;;;;;;;;;;;;;;;24.84;51.96;100397.81;5095781;28;20005;-61
2023/09/11 09:01:19;;;;;;;;;;;;;;;24.73;51.90;100407.25;5095841;28;19912;-62
2023/09/11 09:03:45;;;;;;;;;;;;;;;24.79;52.47;100400.59;5095572;28;19928;-62
2023/09/11 09:06:11;;;;;;;;;;;;;;;24.89;51.95;100403.25;5095748;28;20387;-62
2023/09/11 09:08:36;;;;;;;;;;;;;;;24.88;51.84;100396.09;5095471;28;19912;-61
2023/09/11 09:11:02;;;;;;;;;;;;;;;24.76;52.43;100392.94;5095425;28;19912;-62
2023/09/11 09:13:27;;;;;;;;;;;;;;;24.88;52.18;100393.34;5095720;28;19963;-61
2023/09/11 09:15:52;;;;;;;;;;;;;;;25.00;51.87;100383.88;5095417;28;20269;-62
2023/09/11 09:18:18;;;;;;;;;;;;;;;24.93;51.68;100382.31;5095504;28;19912;-62
2023/09/11 09:20:43;;;;;;;;;;;;;;;24.86;52.03;100376.34;5095169;28;19927;-60
2023/09/11 09:23:08;;;;;;;;;;;;;;;24.82;52.42;100393.72;5094653;28;19919;-62
2023/09/11 09:25:33;;;;;;;;;;;;;;;24.76;52.52;100397.59;5095069;28;19943;-62
2023/09/11 09:27:59;;;;;;;;;;;;;;;24.86;52.44;100408.50;5095053;28;19916;-62
2023/09/11 09:30:28;;;;;;;;;;;;;;;24.71;52.91;100406.72;5095372;28;19912;-61
2023/09/11 09:32:54;;;;;;;;;;;;;;;24.84;52.51;100413.47;5095570;28;19935;-62
2023/09/11 09:35:20;;;;;;;;;;;;;;;24.89;52.46;100407.94;5095149;28;20389;-61
2023/09/11 09:37:49;;;;;;;;;;;;;;;24.92;52.79;100416.41;5094936;28;19916;-61
2023/09/11 09:40:26;;;;;;;;;;;;;;;24.94;52.51;100407.84;5095032;28;19915;-61
2023/09/11 09:42:51;;;;;;;;;;;;;;;25.02;52.66;100409.16;5095005;28;19919;-61
2023/09/11 09:45:33;;;;;;;;;;;;;;;24.90;52.50;100415.84;5094915;28;19916;-61
2023/09/11 09:48:05;;;;;;;;;;;;;;;24.58;53.45;100410.16;5093628;28;19912;-61
2023/09/11 09:50:45;;;;;;;;;;;;;;;24.57;53.74;100422.22;5094942;28;19935;-61
2023/09/11 09:53:19;;;;;;;;;;;;;;;24.79;53.19;100419.00;5094757;28;19916;-61
2023/09/11 09:55:44;;;;;;;;;;;;;;;24.71;53.07;100415.78;5094047;28;19973;-61
2023/09/11 09:58:11;;;;;;;;;;;;;;;24.80;53.25;100415.16;5094543;28;19913;-61
2023/09/11 10:00:36;;;;;;;;;;;;;;;24.95;52.56;100415.00;5094436;28;19912;-61
2023/09/11 10:03:02;;;;;;;;;;;;;;;24.82;52.67;100416.50;5094016;28;19994;-62
2023/09/11 10:05:27;;;;;;;;;;;;;;;24.85;52.84;100407.69;5094172;28;19919;-62
2023/09/11 10:07:52;;;;;;;;;;;;;;;25.01;52.03;100391.03;5094843;28;19919;-62
2023/09/11 10:10:20;;;;;;;;;;;;;;;25.01;52.39;100400.09;5094340;28;19928;-61
2023/09/11 10:12:45;;;;;;;;;;;;;;;25.02;52.37;100389.94;5094184;28;19923;-61
2023/09/11 10:15:11;;;;;;;;;;;;;;;24.94;52.24;100385.88;5094178;28;19912;-62
2023/09/11 10:17:37;;;;;;;;;;;;;;;24.93;52.54;100387.00;5094208;28;19991;-61
2023/09/11 10:20:02;;;;;;;;;;;;;;;24.96;52.33;100369.09;5094227;28;19912;-61
2023/09/11 10:22:28;;;;;;;;;;;;;;;24.94;52.42;100361.16;5094056;28;19916;-61
2023/09/11 10:24:53;;;;;;;;;;;;;;;25.06;52.23;100356.06;5093910;28;19916;-62
2023/09/11 10:27:19;;;;;;;;;;;;;;;25.05;52.36;100343.41;5094155;28;19934;-62
2023/09/11 10:29:53;;;;;;;;;;;;;;;25.05;52.53;100345.38;5092880;28;19961;-61
2023/09/11 10:32:22;;;;;;;;;;;;;;;25.06;52.78;100333.28;5092699;28;19950;-62
2023/09/11 10:34:50;;;;;;;;;;;;;;;25.11;52.61;100327.69;5093068;28;19919;-61
2023/09/11 10:37:16;;;;;;;;;;;;;;;25.17;52.37;100325.72;5094010;28;19912;-61
2023/09/11 10:39:41;;;;;;;;;;;;;;;25.18;52.57;100327.34;5093825;28;19923;-62
2023/09/11 10:42:06;;;;;;;;;;;;;;;25.18;52.29;100317.16;5094000;28;19912;-62
2023/09/11 10:44:35;;;;;;;;;;;;;;;25.21;52.69;100310.28;5093928;28;20321;-62
2023/09/11 10:47:01;;;;;;;;;;;;;;;25.08;52.75;100314.56;5093545;28;19917;-62
2023/09/11 10:49:27;;;;;;;;;;;;;;;25.12;52.79;100305.41;5093423;28;19912;-62
2023/09/11 10:51:53;;;;;;;;;;;;;;;25.21;52.76;100307.53;5093379;28;19912;-62
2023/09/11 10:54:22;;;;;;;;;;;;;;;25.20;52.12;100303.94;5092832;28;20014;-62
2023/09/11 10:56:55;;;;;;;;;;;;;;;25.24;51.91;100291.28;5093443;28;19912;-61
2023/09/11 10:59:23;;;;;;;;;;;;;;;25.39;51.84;100303.16;5093628;28;19912;-62
2023/09/11 11:01:49;;;;;;;;;;;;;;;25.40;51.90;100293.81;5093208;28;19912;-62
2023/09/11 11:04:15;;;;;;;;;;;;;;;25.39;51.71;100301.25;5093194;28;20010;-62
2023/09/11 11:06:45;;;;;;;;;;;;;;;25.44;51.50;100294.84;5093062;28;19916;-62
2023/09/11 11:09:24;;;;;;;;;;;;;;;25.44;51.57;100292.09;5093560;28;20327;-62
2023/09/11 11:11:49;;;;;;;;;;;;;;;25.54;51.09;100278.22;5093250;28;19967;-62
2023/09/11 11:14:15;;;;;;;;;;;;;;;25.59;50.88;100293.78;5093364;28;20324;-62
2023/09/11 11:16:53;;;;;;;;;;;;;;;25.69;50.83;100286.22;5093614;28;19994;-62
2023/09/11 11:19:25;;;;;;;;;;;;;;;25.57;51.14;100283.09;5093200;28;20007;-62
2023/09/11 11:21:51;;;;;;;;;;;;;;;25.58;50.70;100284.72;5093440;28;19918;-61
2023/09/11 11:24:16;;;;;;;;;;;;;;;25.51;50.88;100289.78;5093416;28;20007;-62
2023/09/11 11:26:41;;;;;;;;;;;;;;;25.52;50.58;100285.94;5092991;28;20278;-62
2023/09/11 11:29:07;;;;;;;;;;;;;;;25.45;51.16;100293.75;5093445;28;20011;-62
2023/09/11 11:31:33;;;;;;;;;;;;;;;25.43;51.48;100295.97;5091800;28;19919;-62
2023/09/11 11:33:58;;;;;;;;;;;;;;;25.38;51.38;100290.53;5093164;28;19916;-62
2023/09/11 11:36:25;;;;;;;;;;;;;;;25.44;51.02;100290.16;5093636;28;19916;-61
2023/09/11 11:38:55;;;;;;;;;;;;;;;25.47;50.84;100295.06;5093813;28;20463;-60
2023/09/11 11:41:20;;;;;;;;;;;;;;;25.59;51.05;100286.34;5093573;28;19912;-62
2023/09/11 11:43:46;;;;;;;;;;;;;;;25.74;50.86;100276.22;5093292;28;19969;-62
2023/09/11 11:46:13;;;;;;;;;;;;;;;25.75;50.74;100275.94;5097025;28;19939;-62
2023/09/11 11:48:39;;;;;;;;;;;;;;;25.57;51.13;100279.53;5096934;28;19938;-63
2023/09/11 11:51:04;;;;;;;;;;;;;;;25.65;51.07;100279.69;5096910;28;19915;-62
2023/09/11 11:53:31;;;;;;;;;;;;;;;25.78;50.51;100283.59;5096797;28;19947;-62
2023/09/11 11:55:56;;;;;;;;;;;;;;;25.74;50.61;100284.47;5096220;28;19912;-62
2023/09/11 11:58:22;;;;;;;;;;;;;;;25.35;50.50;100236.16;5097201;28;20053;-62
2023/09/11 12:01:00;;;;;;;;;;;;;;;25.58;50.78;100279.25;5096844;28;19935;-62
2023/09/11 12:03:27;;;;;;;;;;;;;;;25.63;50.47;100275.56;5077291;28;20097;-62
2023/09/11 12:05:52;;;;;;;;;;;;;;;25.59;50.52;100280.03;5076497;28;20281;-62
2023/09/11 12:08:18;;;;;;;;;;;;;;;25.39;50.94;100276.50;5076353;28;19912;-62
2023/09/11 12:10:48;;;;;;;;;;;;;;;25.41;51.28;100281.72;5076255;28;19912;-62
2023/09/11 12:13:18;;;;;;;;;;;;;;;25.43;51.27;100261.03;5095848;28;20049;-62
2023/09/11 12:15:51;;;;;;;;;;;;;;;25.42;51.06;100264.88;5096658;28;20395;-62
2023/09/11 12:18:17;;;;;;;;;;;;;;;25.37;51.43;100265.00;5096620;28;19912;-62
2023/09/11 12:20:49;;;;;;;;;;;;;;;25.44;50.89;100264.59;5096445;28;20261;-61
2023/09/11 12:23:15;;;;;;;;;;;;;;;25.32;51.44;100256.81;5096241;28;19916;-62
2023/09/11 12:25:40;;;;;;;;;;;;;;;25.37;51.10;100256.75;5095991;28;20266;-62
2023/09/11 12:28:06;;;;;;;;;;;;;;;25.53;50.68;100249.06;5096003;28;19935;-62
2023/09/11 12:30:31;;;;;;;;;;;;;;;25.48;51.07;100251.88;5095023;28;19916;-62